sensor_id;sensor_type;location;lat;lon;timestamp;P1;durP1;ratioP1;P2;durP2;ratioP2
12467;SDS011;57850;52.922;6.256;2022-07-21T00:02:25;17.48;;;10.75;;
12467;SDS011;57850;52.922;6.256;2022-07-21T00:04:51;17.50;;;10.30;;
12467;SDS011;57850;52.922;6.256;2022-07-21T00:07:18;17.02;;;11.15;;
12467;SDS011;57850;52.922;6.256;2022-07-21T00:09:46;15.38;;;11.00;;
12467;SDS011;57850;52.922;6.256;2022-07-21T00:12:12;17.20;;;12.15;;
12467;SDS011;57850;52.922;6.256;2022-07-21T00:14:39;19.67;;;11.38;;
12467;SDS011;57850;52.922;6.256;2022-07-21T00:17:05;22.95;;;13.07;;
12467;SDS011;57850;52.922;6.256;2022-07-21T00:19:32;17.75;;;13.45;;
12467;SDS011;57850;52.922;6.256;2022-07-21T00:21:58;17.27;;;12.50;;
12467;SDS011;57850;52.922;6.256;2022-07-21T00:24:25;17.33;;;12.30;;
12467;SDS011;57850;52.922;6.256;2022-07-21T00:26:52;17.63;;;12.63;;
12467;SDS011;57850;52.922;6.256;2022-07-21T00:29:19;20.48;;;12.85;;
12467;SDS011;57850;52.922;6.256;2022-07-21T00:31:45;24.90;;;14.77;;
12467;SDS011;57850;52.922;6.256;2022-07-21T00:34:12;19.23;;;12.73;;
12467;SDS011;57850;52.922;6.256;2022-07-21T00:36:38;22.80;;;13.40;;
12467;SDS011;57850;52.922;6.256;2022-07-21T00:39:05;21.20;;;13.48;;
12467;SDS011;57850;52.922;6.256;2022-07-21T00:41:31;20.23;;;13.48;;
12467;SDS011;57850;52.922;6.256;2022-07-21T00:44:00;20.63;;;13.88;;
12467;SDS011;57850;52.922;6.256;2022-07-21T00:46:27;20.55;;;13.25;;
12467;SDS011;57850;52.922;6.256;2022-07-21T00:48:53;17.17;;;13.60;;
12467;SDS011;57850;52.922;6.256;2022-07-21T00:51:19;19.13;;;13.10;;
12467;SDS011;57850;52.922;6.256;2022-07-21T00:53:46;16.67;;;13.13;;
12467;SDS011;57850;52.922;6.256;2022-07-21T00:56:12;20.00;;;14.13;;
12467;SDS011;57850;52.922;6.256;2022-07-21T00:58:39;20.75;;;14.07;;
12467;SDS011;57850;52.922;6.256;2022-07-21T01:01:07;20.85;;;13.75;;
12467;SDS011;57850;52.922;6.256;2022-07-21T01:03:34;20.52;;;15.20;;
12467;SDS011;57850;52.922;6.256;2022-07-21T01:06:02;24.48;;;15.73;;
12467;SDS011;57850;52.922;6.256;2022-07-21T01:08:30;21.77;;;15.95;;
12467;SDS011;57850;52.922;6.256;2022-07-21T01:10:58;20.42;;;15.57;;
12467;SDS011;57850;52.922;6.256;2022-07-21T01:13:24;21.98;;;15.90;;
12467;SDS011;57850;52.922;6.256;2022-07-21T01:15:51;19.25;;;16.02;;
12467;SDS011;57850;52.922;6.256;2022-07-21T01:18:19;19.10;;;15.05;;
12467;SDS011;57850;52.922;6.256;2022-07-21T01:20:48;20.60;;;16.63;;
12467;SDS011;57850;52.922;6.256;2022-07-21T01:23:19;26.95;;;18.58;;
12467;SDS011;57850;52.922;6.256;2022-07-21T01:25:46;23.25;;;17.67;;
12467;SDS011;57850;52.922;6.256;2022-07-21T01:28:13;23.90;;;17.52;;
12467;SDS011;57850;52.922;6.256;2022-07-21T01:30:39;23.80;;;17.13;;
12467;SDS011;57850;52.922;6.256;2022-07-21T01:33:06;19.98;;;15.50;;
12467;SDS011;57850;52.922;6.256;2022-07-21T01:35:32;23.50;;;16.30;;
12467;SDS011;57850;52.922;6.256;2022-07-21T01:37:59;22.80;;;16.33;;
12467;SDS011;57850;52.922;6.256;2022-07-21T01:40:27;21.70;;;15.90;;
12467;SDS011;57850;52.922;6.256;2022-07-21T01:43:11;19.15;;;16.05;;
12467;SDS011;57850;52.922;6.256;2022-07-21T01:45:37;18.25;;;15.10;;
12467;SDS011;57850;52.922;6.256;2022-07-21T01:48:05;20.98;;;15.57;;
12467;SDS011;57850;52.922;6.256;2022-07-21T01:50:32;21.90;;;15.48;;
12467;SDS011;57850;52.922;6.256;2022-07-21T01:52:59;18.17;;;15.57;;
12467;SDS011;57850;52.922;6.256;2022-07-21T01:55:25;18.85;;;16.02;;
12467;SDS011;57850;52.922;6.256;2022-07-21T01:57:54;23.35;;;17.10;;
12467;SDS011;57850;52.922;6.256;2022-07-21T02:00:20;18.00;;;15.68;;
12467;SDS011;57850;52.922;6.256;2022-07-21T02:02:47;23.85;;;16.77;;
12467;SDS011;57850;52.922;6.256;2022-07-21T02:05:13;19.73;;;17.17;;
12467;SDS011;57850;52.922;6.256;2022-07-21T02:07:40;23.95;;;17.95;;
12467;SDS011;57850;52.922;6.256;2022-07-21T02:10:07;24.58;;;17.95;;
12467;SDS011;57850;52.922;6.256;2022-07-21T02:12:35;24.77;;;18.38;;
12467;SDS011;57850;52.922;6.256;2022-07-21T02:15:02;22.13;;;18.13;;
12467;SDS011;57850;52.922;6.256;2022-07-21T02:17:30;26.90;;;20.02;;
12467;SDS011;57850;52.922;6.256;2022-07-21T02:19:56;22.70;;;18.77;;
12467;SDS011;57850;52.922;6.256;2022-07-21T02:22:22;23.00;;;18.40;;
12467;SDS011;57850;52.922;6.256;2022-07-21T02:24:49;21.48;;;18.67;;
12467;SDS011;57850;52.922;6.256;2022-07-21T02:27:16;23.35;;;19.88;;
12467;SDS011;57850;52.922;6.256;2022-07-21T02:29:43;21.48;;;18.80;;
12467;SDS011;57850;52.922;6.256;2022-07-21T02:32:10;24.35;;;19.38;;
12467;SDS011;57850;52.922;6.256;2022-07-21T02:34:36;26.10;;;20.50;;
12467;SDS011;57850;52.922;6.256;2022-07-21T02:37:03;23.75;;;19.75;;
12467;SDS011;57850;52.922;6.256;2022-07-21T02:39:30;24.55;;;20.48;;
12467;SDS011;57850;52.922;6.256;2022-07-21T02:41:56;22.08;;;19.35;;
12467;SDS011;57850;52.922;6.256;2022-07-21T02:44:24;24.00;;;20.38;;
12467;SDS011;57850;52.922;6.256;2022-07-21T02:46:52;21.88;;;19.50;;
12467;SDS011;57850;52.922;6.256;2022-07-21T02:49:18;23.50;;;20.45;;
12467;SDS011;57850;52.922;6.256;2022-07-21T02:51:45;27.30;;;22.05;;
12467;SDS011;57850;52.922;6.256;2022-07-21T02:54:11;25.63;;;21.40;;
12467;SDS011;57850;52.922;6.256;2022-07-21T02:56:38;26.23;;;21.92;;
12467;SDS011;57850;52.922;6.256;2022-07-21T02:59:04;24.67;;;21.17;;
12467;SDS011;57850;52.922;6.256;2022-07-21T03:01:31;24.05;;;21.00;;
12467;SDS011;57850;52.922;6.256;2022-07-21T03:03:59;26.30;;;22.05;;
12467;SDS011;57850;52.922;6.256;2022-07-21T03:06:25;25.15;;;20.73;;
12467;SDS011;57850;52.922;6.256;2022-07-21T03:08:52;32.63;;;23.42;;
12467;SDS011;57850;52.922;6.256;2022-07-21T03:11:18;28.25;;;22.65;;
12467;SDS011;57850;52.922;6.256;2022-07-21T03:13:44;29.38;;;23.38;;
12467;SDS011;57850;52.922;6.256;2022-07-21T03:16:11;27.73;;;24.52;;
12467;SDS011;57850;52.922;6.256;2022-07-21T03:18:37;30.67;;;24.67;;
12467;SDS011;57850;52.922;6.256;2022-07-21T03:21:05;29.13;;;25.33;;
12467;SDS011;57850;52.922;6.256;2022-07-21T03:23:32;32.45;;;27.25;;
12467;SDS011;57850;52.922;6.256;2022-07-21T03:25:58;32.58;;;26.88;;
12467;SDS011;57850;52.922;6.256;2022-07-21T03:28:25;32.58;;;27.30;;
12467;SDS011;57850;52.922;6.256;2022-07-21T03:30:51;35.53;;;28.90;;
12467;SDS011;57850;52.922;6.256;2022-07-21T03:33:18;37.22;;;29.95;;
12467;SDS011;57850;52.922;6.256;2022-07-21T03:35:44;37.83;;;29.38;;
12467;SDS011;57850;52.922;6.256;2022-07-21T03:38:12;37.42;;;30.63;;
12467;SDS011;57850;52.922;6.256;2022-07-21T03:40:39;39.95;;;30.80;;
12467;SDS011;57850;52.922;6.256;2022-07-21T03:43:06;42.17;;;32.03;;
12467;SDS011;57850;52.922;6.256;2022-07-21T03:45:34;38.38;;;30.13;;
12467;SDS011;57850;52.922;6.256;2022-07-21T03:48:02;34.00;;;29.00;;
12467;SDS011;57850;52.922;6.256;2022-07-21T03:50:30;35.97;;;27.67;;
12467;SDS011;57850;52.922;6.256;2022-07-21T03:52:57;31.77;;;28.33;;
12467;SDS011;57850;52.922;6.256;2022-07-21T03:55:27;31.75;;;26.70;;
12467;SDS011;57850;52.922;6.256;2022-07-21T03:57:55;32.40;;;27.92;;
12467;SDS011;57850;52.922;6.256;2022-07-21T04:00:23;32.20;;;27.27;;
12467;SDS011;57850;52.922;6.256;2022-07-21T04:02:52;31.25;;;27.60;;
12467;SDS011;57850;52.922;6.256;2022-07-21T04:05:18;30.70;;;27.20;;
12467;SDS011;57850;52.922;6.256;2022-07-21T04:07:46;28.33;;;25.27;;
12467;SDS011;57850;52.922;6.256;2022-07-21T04:10:15;27.38;;;24.50;;
12467;SDS011;57850;52.922;6.256;2022-07-21T04:12:45;29.60;;;25.05;;
12467;SDS011;57850;52.922;6.256;2022-07-21T04:15:11;29.42;;;23.60;;
12467;SDS011;57850;52.922;6.256;2022-07-21T04:17:39;26.02;;;22.42;;
12467;SDS011;57850;52.922;6.256;2022-07-21T04:20:06;29.63;;;22.58;;
12467;SDS011;57850;52.922;6.256;2022-07-21T04:22:34;28.38;;;24.35;;
12467;SDS011;57850;52.922;6.256;2022-07-21T04:25:01;25.42;;;22.00;;
12467;SDS011;57850;52.922;6.256;2022-07-21T04:27:29;26.27;;;23.58;;
12467;SDS011;57850;52.922;6.256;2022-07-21T04:29:57;24.83;;;22.23;;
12467;SDS011;57850;52.922;6.256;2022-07-21T04:32:23;26.80;;;21.58;;
12467;SDS011;57850;52.922;6.256;2022-07-21T04:34:50;24.75;;;21.58;;
12467;SDS011;57850;52.922;6.256;2022-07-21T04:37:17;27.17;;;23.67;;
12467;SDS011;57850;52.922;6.256;2022-07-21T04:39:43;27.55;;;23.65;;
12467;SDS011;57850;52.922;6.256;2022-07-21T04:42:10;26.92;;;22.35;;
12467;SDS011;57850;52.922;6.256;2022-07-21T04:44:36;26.55;;;22.40;;
12467;SDS011;57850;52.922;6.256;2022-07-21T04:47:04;30.02;;;23.52;;
12467;SDS011;57850;52.922;6.256;2022-07-21T04:49:31;30.42;;;24.10;;
12467;SDS011;57850;52.922;6.256;2022-07-21T04:51:57;29.40;;;24.13;;
12467;SDS011;57850;52.922;6.256;2022-07-21T04:54:24;26.95;;;23.52;;
12467;SDS011;57850;52.922;6.256;2022-07-21T04:56:50;26.50;;;23.65;;
12467;SDS011;57850;52.922;6.256;2022-07-21T04:59:17;32.83;;;27.13;;
12467;SDS011;57850;52.922;6.256;2022-07-21T05:01:44;32.28;;;27.25;;
12467;SDS011;57850;52.922;6.256;2022-07-21T05:04:12;30.08;;;26.40;;
12467;SDS011;57850;52.922;6.256;2022-07-21T05:06:38;28.52;;;25.45;;
12467;SDS011;57850;52.922;6.256;2022-07-21T05:09:05;35.25;;;27.35;;
12467;SDS011;57850;52.922;6.256;2022-07-21T05:11:31;35.08;;;28.42;;
12467;SDS011;57850;52.922;6.256;2022-07-21T05:13:58;36.45;;;31.38;;
12467;SDS011;57850;52.922;6.256;2022-07-21T05:16:24;45.63;;;36.38;;
12467;SDS011;57850;52.922;6.256;2022-07-21T05:18:51;43.72;;;36.28;;
12467;SDS011;57850;52.922;6.256;2022-07-21T05:21:18;41.38;;;34.80;;
12467;SDS011;57850;52.922;6.256;2022-07-21T05:23:45;40.45;;;35.08;;
12467;SDS011;57850;52.922;6.256;2022-07-21T05:26:11;41.72;;;34.92;;
12467;SDS011;57850;52.922;6.256;2022-07-21T05:28:38;39.60;;;34.65;;
12467;SDS011;57850;52.922;6.256;2022-07-21T05:31:05;44.08;;;36.85;;
12467;SDS011;57850;52.922;6.256;2022-07-21T05:33:32;43.22;;;35.35;;
12467;SDS011;57850;52.922;6.256;2022-07-21T05:35:59;39.45;;;35.05;;
12467;SDS011;57850;52.922;6.256;2022-07-21T05:38:26;42.33;;;35.20;;
12467;SDS011;57850;52.922;6.256;2022-07-21T05:40:53;40.25;;;34.60;;
12467;SDS011;57850;52.922;6.256;2022-07-21T05:43:19;45.42;;;35.28;;
12467;SDS011;57850;52.922;6.256;2022-07-21T05:45:46;40.88;;;34.70;;
12467;SDS011;57850;52.922;6.256;2022-07-21T05:48:12;39.25;;;33.80;;
12467;SDS011;57850;52.922;6.256;2022-07-21T05:50:40;39.05;;;33.35;;
12467;SDS011;57850;52.922;6.256;2022-07-21T05:53:06;35.95;;;32.05;;
12467;SDS011;57850;52.922;6.256;2022-07-21T05:55:34;37.85;;;30.23;;
12467;SDS011;57850;52.922;6.256;2022-07-21T05:58:01;35.13;;;31.17;;
12467;SDS011;57850;52.922;6.256;2022-07-21T06:00:27;35.63;;;30.75;;
12467;SDS011;57850;52.922;6.256;2022-07-21T06:02:54;33.88;;;29.67;;
12467;SDS011;57850;52.922;6.256;2022-07-21T06:05:20;29.60;;;26.30;;
12467;SDS011;57850;52.922;6.256;2022-07-21T06:07:47;27.95;;;24.90;;
12467;SDS011;57850;52.922;6.256;2022-07-21T06:10:14;31.83;;;26.52;;
12467;SDS011;57850;52.922;6.256;2022-07-21T06:12:43;27.48;;;24.60;;
12467;SDS011;57850;52.922;6.256;2022-07-21T06:15:10;26.48;;;23.65;;
12467;SDS011;57850;52.922;6.256;2022-07-21T06:17:38;30.23;;;24.88;;
12467;SDS011;57850;52.922;6.256;2022-07-21T06:20:06;27.48;;;23.63;;
12467;SDS011;57850;52.922;6.256;2022-07-21T06:22:34;27.60;;;24.65;;
12467;SDS011;57850;52.922;6.256;2022-07-21T06:25:01;27.55;;;23.23;;
12467;SDS011;57850;52.922;6.256;2022-07-21T06:27:27;25.90;;;22.50;;
12467;SDS011;57850;52.922;6.256;2022-07-21T06:29:55;25.85;;;23.13;;
12467;SDS011;57850;52.922;6.256;2022-07-21T06:32:23;25.85;;;23.10;;
12467;SDS011;57850;52.922;6.256;2022-07-21T06:34:50;25.65;;;22.92;;
12467;SDS011;57850;52.922;6.256;2022-07-21T06:37:16;26.17;;;23.38;;
12467;SDS011;57850;52.922;6.256;2022-07-21T06:39:43;25.40;;;22.70;;
12467;SDS011;57850;52.922;6.256;2022-07-21T06:42:09;27.20;;;23.73;;
12467;SDS011;57850;52.922;6.256;2022-07-21T06:44:36;27.95;;;24.17;;
12467;SDS011;57850;52.922;6.256;2022-07-21T06:47:04;29.38;;;23.85;;
12467;SDS011;57850;52.922;6.256;2022-07-21T06:49:30;26.45;;;23.73;;
12467;SDS011;57850;52.922;6.256;2022-07-21T06:51:57;32.10;;;25.83;;
12467;SDS011;57850;52.922;6.256;2022-07-21T06:54:23;28.92;;;25.67;;
12467;SDS011;57850;52.922;6.256;2022-07-21T06:56:50;26.48;;;23.73;;
12467;SDS011;57850;52.922;6.256;2022-07-21T06:59:16;30.00;;;25.20;;
12467;SDS011;57850;52.922;6.256;2022-07-21T07:01:43;33.42;;;26.50;;
12467;SDS011;57850;52.922;6.256;2022-07-21T07:04:11;28.20;;;25.20;;
12467;SDS011;57850;52.922;6.256;2022-07-21T07:06:37;31.17;;;26.40;;
12467;SDS011;57850;52.922;6.256;2022-07-21T07:09:04;28.48;;;23.27;;
12467;SDS011;57850;52.922;6.256;2022-07-21T07:11:31;30.38;;;26.67;;
12467;SDS011;57850;52.922;6.256;2022-07-21T07:13:58;30.23;;;25.30;;
12467;SDS011;57850;52.922;6.256;2022-07-21T07:16:24;28.00;;;24.70;;
12467;SDS011;57850;52.922;6.256;2022-07-21T07:18:51;30.30;;;26.67;;
12467;SDS011;57850;52.922;6.256;2022-07-21T07:21:19;31.98;;;26.65;;
12467;SDS011;57850;52.922;6.256;2022-07-21T07:23:45;30.67;;;26.15;;
12467;SDS011;57850;52.922;6.256;2022-07-21T07:26:12;29.83;;;26.58;;
12467;SDS011;57850;52.922;6.256;2022-07-21T07:28:38;34.08;;;26.50;;
12467;SDS011;57850;52.922;6.256;2022-07-21T07:31:05;30.48;;;27.17;;
12467;SDS011;57850;52.922;6.256;2022-07-21T07:33:31;33.95;;;28.60;;
12467;SDS011;57850;52.922;6.256;2022-07-21T07:35:58;37.38;;;28.48;;
12467;SDS011;57850;52.922;6.256;2022-07-21T07:38:25;33.05;;;29.17;;
12467;SDS011;57850;52.922;6.256;2022-07-21T07:40:52;33.92;;;29.67;;
12467;SDS011;57850;52.922;6.256;2022-07-21T07:43:18;32.83;;;27.48;;
12467;SDS011;57850;52.922;6.256;2022-07-21T07:45:45;38.97;;;30.40;;
12467;SDS011;57850;52.922;6.256;2022-07-21T07:48:11;38.25;;;32.63;;
12467;SDS011;57850;52.922;6.256;2022-07-21T07:50:38;40.05;;;31.70;;
12467;SDS011;57850;52.922;6.256;2022-07-21T07:53:05;38.17;;;32.22;;
12467;SDS011;57850;52.922;6.256;2022-07-21T07:55:33;38.30;;;32.10;;
12467;SDS011;57850;52.922;6.256;2022-07-21T07:57:59;39.47;;;33.28;;
12467;SDS011;57850;52.922;6.256;2022-07-21T08:00:26;39.75;;;33.58;;
12467;SDS011;57850;52.922;6.256;2022-07-21T08:02:53;43.33;;;35.88;;
12467;SDS011;57850;52.922;6.256;2022-07-21T08:05:19;43.33;;;36.17;;
12467;SDS011;57850;52.922;6.256;2022-07-21T08:07:45;45.45;;;37.55;;
12467;SDS011;57850;52.922;6.256;2022-07-21T08:10:12;47.03;;;38.35;;
12467;SDS011;57850;52.922;6.256;2022-07-21T08:12:40;47.93;;;40.83;;
12467;SDS011;57850;52.922;6.256;2022-07-21T08:15:07;43.90;;;37.10;;
12467;SDS011;57850;52.922;6.256;2022-07-21T08:17:34;44.15;;;36.28;;
12467;SDS011;57850;52.922;6.256;2022-07-21T08:20:01;45.90;;;36.47;;
12467;SDS011;57850;52.922;6.256;2022-07-21T08:22:29;47.00;;;38.15;;
12467;SDS011;57850;52.922;6.256;2022-07-21T08:24:55;48.55;;;38.80;;
12467;SDS011;57850;52.922;6.256;2022-07-21T08:27:22;44.38;;;37.13;;
12467;SDS011;57850;52.922;6.256;2022-07-21T08:29:50;48.05;;;40.10;;
12467;SDS011;57850;52.922;6.256;2022-07-21T08:32:17;52.67;;;39.63;;
12467;SDS011;57850;52.922;6.256;2022-07-21T08:34:44;49.38;;;41.22;;
12467;SDS011;57850;52.922;6.256;2022-07-21T08:37:11;51.92;;;40.13;;
12467;SDS011;57850;52.922;6.256;2022-07-21T08:39:38;46.75;;;39.95;;
12467;SDS011;57850;52.922;6.256;2022-07-21T08:42:05;49.72;;;39.92;;
12467;SDS011;57850;52.922;6.256;2022-07-21T08:44:33;50.78;;;41.20;;
12467;SDS011;57850;52.922;6.256;2022-07-21T08:47:01;49.50;;;40.53;;
12467;SDS011;57850;52.922;6.256;2022-07-21T08:49:30;53.53;;;40.80;;
12467;SDS011;57850;52.922;6.256;2022-07-21T08:51:57;49.97;;;40.55;;
12467;SDS011;57850;52.922;6.256;2022-07-21T08:54:24;55.90;;;40.83;;
12467;SDS011;57850;52.922;6.256;2022-07-21T08:56:50;50.80;;;40.72;;
12467;SDS011;57850;52.922;6.256;2022-07-21T08:59:17;48.70;;;39.20;;
12467;SDS011;57850;52.922;6.256;2022-07-21T09:01:44;52.42;;;40.13;;
12467;SDS011;57850;52.922;6.256;2022-07-21T09:04:24;50.03;;;39.60;;
12467;SDS011;57850;52.922;6.256;2022-07-21T09:06:53;47.88;;;38.58;;
12467;SDS011;57850;52.922;6.256;2022-07-21T09:09:21;46.47;;;38.58;;
12467;SDS011;57850;52.922;6.256;2022-07-21T09:11:49;46.58;;;39.30;;
12467;SDS011;57850;52.922;6.256;2022-07-21T09:14:17;51.33;;;37.67;;
12467;SDS011;57850;52.922;6.256;2022-07-21T09:16:47;46.38;;;38.83;;
12467;SDS011;57850;52.922;6.256;2022-07-21T09:19:15;52.05;;;40.63;;
12467;SDS011;57850;52.922;6.256;2022-07-21T09:21:45;50.70;;;39.70;;
12467;SDS011;57850;52.922;6.256;2022-07-21T09:24:16;49.58;;;39.05;;
12467;SDS011;57850;52.922;6.256;2022-07-21T09:26:57;50.47;;;37.65;;
12467;SDS011;57850;52.922;6.256;2022-07-21T09:29:26;48.35;;;39.42;;
12467;SDS011;57850;52.922;6.256;2022-07-21T09:31:58;51.33;;;39.10;;
12467;SDS011;57850;52.922;6.256;2022-07-21T09:34:38;48.50;;;38.95;;
12467;SDS011;57850;52.922;6.256;2022-07-21T09:37:07;50.38;;;39.03;;
12467;SDS011;57850;52.922;6.256;2022-07-21T09:39:41;51.92;;;38.47;;
12467;SDS011;57850;52.922;6.256;2022-07-21T09:42:18;43.88;;;36.13;;
12467;SDS011;57850;52.922;6.256;2022-07-21T09:44:48;45.17;;;36.30;;
12467;SDS011;57850;52.922;6.256;2022-07-21T09:47:17;46.60;;;37.08;;
12467;SDS011;57850;52.922;6.256;2022-07-21T09:49:45;43.95;;;36.60;;
12467;SDS011;57850;52.922;6.256;2022-07-21T09:52:27;46.15;;;36.95;;
12467;SDS011;57850;52.922;6.256;2022-07-21T09:54:56;41.20;;;34.78;;
12467;SDS011;57850;52.922;6.256;2022-07-21T09:57:24;41.45;;;33.95;;
12467;SDS011;57850;52.922;6.256;2022-07-21T09:59:51;42.65;;;33.95;;
12467;SDS011;57850;52.922;6.256;2022-07-21T10:02:19;39.58;;;34.13;;
12467;SDS011;57850;52.922;6.256;2022-07-21T10:04:48;47.15;;;34.92;;
12467;SDS011;57850;52.922;6.256;2022-07-21T10:07:20;43.38;;;33.90;;
12467;SDS011;57850;52.922;6.256;2022-07-21T10:09:49;40.13;;;34.17;;
12467;SDS011;57850;52.922;6.256;2022-07-21T10:12:16;47.33;;;34.75;;
12467;SDS011;57850;52.922;6.256;2022-07-21T10:14:44;41.33;;;34.33;;
12467;SDS011;57850;52.922;6.256;2022-07-21T10:17:11;41.60;;;33.88;;
12467;SDS011;57850;52.922;6.256;2022-07-21T10:19:39;43.28;;;34.22;;
12467;SDS011;57850;52.922;6.256;2022-07-21T10:22:16;40.75;;;34.45;;
12467;SDS011;57850;52.922;6.256;2022-07-21T10:24:50;37.78;;;32.90;;
12467;SDS011;57850;52.922;6.256;2022-07-21T10:27:17;37.35;;;32.97;;
12467;SDS011;57850;52.922;6.256;2022-07-21T10:29:57;39.03;;;32.97;;
12467;SDS011;57850;52.922;6.256;2022-07-21T10:32:26;40.25;;;34.08;;
12467;SDS011;57850;52.922;6.256;2022-07-21T10:34:56;38.13;;;32.55;;
12467;SDS011;57850;52.922;6.256;2022-07-21T10:49:00;39.88;;;32.45;;
12467;SDS011;57850;52.922;6.256;2022-07-21T10:51:27;39.10;;;32.83;;
12467;SDS011;57850;52.922;6.256;2022-07-21T10:54:15;34.35;;;29.48;;
12467;SDS011;57850;52.922;6.256;2022-07-21T10:56:43;37.53;;;32.17;;
12467;SDS011;57850;52.922;6.256;2022-07-21T10:59:11;38.58;;;31.10;;
12467;SDS011;57850;52.922;6.256;2022-07-21T11:01:37;36.97;;;31.33;;
12467;SDS011;57850;52.922;6.256;2022-07-21T11:04:09;35.75;;;29.65;;
12467;SDS011;57850;52.922;6.256;2022-07-21T11:06:38;34.00;;;30.38;;
12467;SDS011;57850;52.922;6.256;2022-07-21T11:09:07;37.35;;;29.88;;
12467;SDS011;57850;52.922;6.256;2022-07-21T11:11:35;38.25;;;32.40;;
12467;SDS011;57850;52.922;6.256;2022-07-21T11:14:04;40.05;;;33.70;;
12467;SDS011;57850;52.922;6.256;2022-07-21T11:19:28;32.60;;;29.02;;
12467;SDS011;57850;52.922;6.256;2022-07-21T11:21:55;34.15;;;29.95;;
12467;SDS011;57850;52.922;6.256;2022-07-21T11:24:23;39.40;;;30.42;;
12467;SDS011;57850;52.922;6.256;2022-07-21T11:26:53;37.45;;;29.55;;
12467;SDS011;57850;52.922;6.256;2022-07-21T11:29:20;35.97;;;29.30;;
12467;SDS011;57850;52.922;6.256;2022-07-21T11:31:46;32.63;;;28.90;;
12467;SDS011;57850;52.922;6.256;2022-07-21T11:34:14;39.05;;;30.17;;
12467;SDS011;57850;52.922;6.256;2022-07-21T11:36:41;35.78;;;29.15;;
12467;SDS011;57850;52.922;6.256;2022-07-21T11:39:08;34.28;;;28.52;;
12467;SDS011;57850;52.922;6.256;2022-07-21T11:41:37;32.13;;;28.67;;
12467;SDS011;57850;52.922;6.256;2022-07-21T11:44:05;33.50;;;28.70;;
12467;SDS011;57850;52.922;6.256;2022-07-21T11:46:45;31.88;;;27.05;;
12467;SDS011;57850;52.922;6.256;2022-07-21T11:49:15;34.88;;;29.65;;
12467;SDS011;57850;52.922;6.256;2022-07-21T11:51:46;31.92;;;27.65;;
12467;SDS011;57850;52.922;6.256;2022-07-21T11:54:20;31.02;;;27.50;;
12467;SDS011;57850;52.922;6.256;2022-07-21T11:56:49;34.03;;;30.38;;
12467;SDS011;57850;52.922;6.256;2022-07-21T11:59:16;29.20;;;23.40;;
12467;SDS011;57850;52.922;6.256;2022-07-21T12:01:50;18.80;;;12.68;;
12467;SDS011;57850;52.922;6.256;2022-07-21T12:04:33;16.77;;;12.45;;
12467;SDS011;57850;52.922;6.256;2022-07-21T12:07:03;27.60;;;19.73;;
12467;SDS011;57850;52.922;6.256;2022-07-21T12:09:31;36.97;;;25.95;;
12467;SDS011;57850;52.922;6.256;2022-07-21T12:11:58;39.88;;;28.70;;
12467;SDS011;57850;52.922;6.256;2022-07-21T12:14:45;43.10;;;28.27;;
12467;SDS011;57850;52.922;6.256;2022-07-21T12:17:16;24.67;;;18.02;;
12467;SDS011;57850;52.922;6.256;2022-07-21T12:19:58;17.90;;;13.45;;
12467;SDS011;57850;52.922;6.256;2022-07-21T12:22:32;21.42;;;17.40;;
12467;SDS011;57850;52.922;6.256;2022-07-21T12:25:00;29.17;;;20.90;;
12467;SDS011;57850;52.922;6.256;2022-07-21T12:27:26;24.33;;;17.60;;
12467;SDS011;57850;52.922;6.256;2022-07-21T12:29:53;22.05;;;15.52;;
12467;SDS011;57850;52.922;6.256;2022-07-21T12:35:20;20.13;;;15.48;;
12467;SDS011;57850;52.922;6.256;2022-07-21T12:37:58;20.60;;;17.20;;
12467;SDS011;57850;52.922;6.256;2022-07-21T12:40:28;23.17;;;18.35;;
12467;SDS011;57850;52.922;6.256;2022-07-21T12:43:05;26.30;;;19.83;;
12467;SDS011;57850;52.922;6.256;2022-07-21T12:45:43;24.15;;;19.45;;
12467;SDS011;57850;52.922;6.256;2022-07-21T12:48:15;24.98;;;18.85;;
12467;SDS011;57850;52.922;6.256;2022-07-21T12:50:57;22.85;;;19.08;;
12467;SDS011;57850;52.922;6.256;2022-07-21T12:53:29;23.95;;;19.25;;
12467;SDS011;57850;52.922;6.256;2022-07-21T12:55:56;20.38;;;18.17;;
12467;SDS011;57850;52.922;6.256;2022-07-21T12:58:23;25.48;;;20.30;;
12467;SDS011;57850;52.922;6.256;2022-07-21T13:00:49;25.40;;;18.60;;
12467;SDS011;57850;52.922;6.256;2022-07-21T13:03:16;27.13;;;22.13;;
12467;SDS011;57850;52.922;6.256;2022-07-21T13:05:42;37.58;;;27.02;;
12467;SDS011;57850;52.922;6.256;2022-07-21T13:08:11;33.85;;;26.65;;
12467;SDS011;57850;52.922;6.256;2022-07-21T13:10:37;31.77;;;25.13;;
12467;SDS011;57850;52.922;6.256;2022-07-21T13:13:04;31.95;;;26.17;;
12467;SDS011;57850;52.922;6.256;2022-07-21T13:15:30;30.48;;;24.90;;
12467;SDS011;57850;52.922;6.256;2022-07-21T13:17:57;29.25;;;22.88;;
12467;SDS011;57850;52.922;6.256;2022-07-21T13:20:24;27.73;;;24.13;;
12467;SDS011;57850;52.922;6.256;2022-07-21T13:22:50;27.75;;;23.58;;
12467;SDS011;57850;52.922;6.256;2022-07-21T13:25:18;29.60;;;24.55;;
12467;SDS011;57850;52.922;6.256;2022-07-21T13:27:44;26.80;;;23.60;;
12467;SDS011;57850;52.922;6.256;2022-07-21T13:30:11;25.02;;;21.90;;
12467;SDS011;57850;52.922;6.256;2022-07-21T13:32:38;24.52;;;21.92;;
12467;SDS011;57850;52.922;6.256;2022-07-21T13:35:05;26.48;;;23.65;;
12467;SDS011;57850;52.922;6.256;2022-07-21T13:37:32;24.73;;;22.20;;
12467;SDS011;57850;52.922;6.256;2022-07-21T13:39:59;25.20;;;22.08;;
12467;SDS011;57850;52.922;6.256;2022-07-21T13:42:27;23.92;;;21.05;;
12467;SDS011;57850;52.922;6.256;2022-07-21T13:44:53;22.45;;;19.70;;
12467;SDS011;57850;52.922;6.256;2022-07-21T13:47:20;18.60;;;16.63;;
12467;SDS011;57850;52.922;6.256;2022-07-21T13:49:46;17.38;;;15.65;;
12467;SDS011;57850;52.922;6.256;2022-07-21T13:52:13;17.60;;;15.75;;
12467;SDS011;57850;52.922;6.256;2022-07-21T13:54:39;17.10;;;15.30;;
12467;SDS011;57850;52.922;6.256;2022-07-21T13:57:06;17.63;;;15.82;;
12467;SDS011;57850;52.922;6.256;2022-07-21T13:59:34;17.30;;;15.70;;
12467;SDS011;57850;52.922;6.256;2022-07-21T14:02:00;19.20;;;17.20;;
12467;SDS011;57850;52.922;6.256;2022-07-21T14:04:27;19.70;;;17.58;;
12467;SDS011;57850;52.922;6.256;2022-07-21T14:06:53;20.23;;;18.23;;
12467;SDS011;57850;52.922;6.256;2022-07-21T14:09:20;20.75;;;18.58;;
12467;SDS011;57850;52.922;6.256;2022-07-21T14:11:47;20.05;;;18.00;;
12467;SDS011;57850;52.922;6.256;2022-07-21T14:14:13;21.33;;;18.42;;
12467;SDS011;57850;52.922;6.256;2022-07-21T14:16:47;20.02;;;17.92;;
12467;SDS011;57850;52.922;6.256;2022-07-21T14:19:14;21.15;;;18.35;;
12467;SDS011;57850;52.922;6.256;2022-07-21T14:21:41;21.15;;;17.05;;
12467;SDS011;57850;52.922;6.256;2022-07-21T14:24:08;19.90;;;17.90;;
12467;SDS011;57850;52.922;6.256;2022-07-21T14:26:52;18.60;;;16.63;;
12467;SDS011;57850;52.922;6.256;2022-07-21T14:29:19;23.35;;;18.35;;
12467;SDS011;57850;52.922;6.256;2022-07-21T14:31:46;25.77;;;18.65;;
12467;SDS011;57850;52.922;6.256;2022-07-21T14:34:14;20.60;;;18.02;;
12467;SDS011;57850;52.922;6.256;2022-07-21T14:36:40;21.10;;;19.10;;
12467;SDS011;57850;52.922;6.256;2022-07-21T14:39:07;20.52;;;18.35;;
12467;SDS011;57850;52.922;6.256;2022-07-21T14:41:34;20.17;;;18.13;;
12467;SDS011;57850;52.922;6.256;2022-07-21T14:44:00;19.80;;;17.90;;